sensor_id;sensor_type;location;lat;lon;timestamp;pressure;altitude;pressure_sealevel;temperature;humidity
72909;BME280;61051;62.624;17.950;2023-10-19T00:02:26;102100.62;;;-2.23;82.50
72909;BME280;61051;62.624;17.950;2023-10-19T00:04:56;102100.18;;;-2.36;82.49
72909;BME280;61051;62.624;17.950;2023-10-19T00:07:25;102101.55;;;-2.22;82.38
72909;BME280;61051;62.624;17.950;2023-10-19T00:09:54;102105.04;;;-2.25;82.63
72909;BME280;61051;62.624;17.950;2023-10-19T00:12:22;102105.86;;;-2.40;82.85
72909;BME280;61051;62.624;17.950;2023-10-19T00:14:51;102106.37;;;-2.40;82.77
72909;BME280;61051;62.624;17.950;2023-10-19T00:17:20;102112.20;;;-2.49;82.74
72909;BME280;61051;62.624;17.950;2023-10-19T00:19:48;102113.72;;;-2.40;82.23
72909;BME280;61051;62.624;17.950;2023-10-19T00:22:17;102115.26;;;-2.49;82.53
72909;BME280;61051;62.624;17.950;2023-10-19T00:24:46;102117.61;;;-2.55;83.26
72909;BME280;61051;62.624;17.950;2023-10-19T00:27:15;102116.07;;;-2.41;82.22
72909;BME280;61051;62.624;17.950;2023-10-19T00:29:44;102115.24;;;-2.55;83.07
72909;BME280;61051;62.624;17.950;2023-10-19T00:32:12;102113.57;;;-2.42;83.08
72909;BME280;61051;62.624;17.950;2023-10-19T00:34:41;102114.64;;;-2.42;81.90
72909;BME280;61051;62.624;17.950;2023-10-19T00:37:10;102114.91;;;-2.43;82.19
72909;BME280;61051;62.624;17.950;2023-10-19T00:39:38;102125.03;;;-2.39;83.28
72909;BME280;61051;62.624;17.950;2023-10-19T00:42:07;102131.31;;;-2.35;83.03
72909;BME280;61051;62.624;17.950;2023-10-19T00:44:35;102127.89;;;-2.46;82.29
72909;BME280;61051;62.624;17.950;2023-10-19T00:47:04;102127.71;;;-2.62;81.22
72909;BME280;61051;62.624;17.950;2023-10-19T00:49:33;102127.56;;;-2.67;83.45
72909;BME280;61051;62.624;17.950;2023-10-19T00:52:01;102128.47;;;-2.77;84.35
72909;BME280;61051;62.624;17.950;2023-10-19T00:54:32;102134.60;;;-2.71;83.15
72909;BME280;61051;62.624;17.950;2023-10-19T00:57:04;102136.72;;;-2.83;82.42
72909;BME280;61051;62.624;17.950;2023-10-19T00:59:33;102133.35;;;-2.95;81.11
72909;BME280;61051;62.624;17.950;2023-10-19T01:02:01;102128.65;;;-3.02;84.91
72909;BME280;61051;62.624;17.950;2023-10-19T01:04:30;102133.30;;;-2.89;84.41
72909;BME280;61051;62.624;17.950;2023-10-19T01:06:58;102138.17;;;-2.78;82.73
72909;BME280;61051;62.624;17.950;2023-10-19T01:09:28;102137.57;;;-2.90;83.77
72909;BME280;61051;62.624;17.950;2023-10-19T01:11:57;102137.42;;;-2.94;83.76
72909;BME280;61051;62.624;17.950;2023-10-19T01:14:26;102140.80;;;-2.89;82.44
72909;BME280;61051;62.624;17.950;2023-10-19T01:16:55;102136.90;;;-2.81;83.51
72909;BME280;61051;62.624;17.950;2023-10-19T01:19:25;102136.25;;;-2.91;84.38
72909;BME280;61051;62.624;17.950;2023-10-19T01:21:53;102137.56;;;-2.87;83.00
72909;BME280;61051;62.624;17.950;2023-10-19T01:24:22;102131.90;;;-2.76;83.65
72909;BME280;61051;62.624;17.950;2023-10-19T01:26:51;102129.10;;;-2.64;83.37
72909;BME280;61051;62.624;17.950;2023-10-19T01:29:19;102132.31;;;-2.63;82.70
72909;BME280;61051;62.624;17.950;2023-10-19T01:31:48;102131.71;;;-2.65;83.03
72909;BME280;61051;62.624;17.950;2023-10-19T01:34:17;102133.50;;;-2.65;82.12
72909;BME280;61051;62.624;17.950;2023-10-19T01:36:45;102137.88;;;-2.60;82.41
72909;BME280;61051;62.624;17.950;2023-10-19T01:39:14;102138.32;;;-2.52;82.32
72909;BME280;61051;62.624;17.950;2023-10-19T01:41:42;102141.32;;;-2.56;82.44
72909;BME280;61051;62.624;17.950;2023-10-19T01:44:11;102135.81;;;-2.55;82.02
72909;BME280;61051;62.624;17.950;2023-10-19T01:46:40;102138.36;;;-2.55;81.89
72909;BME280;61051;62.624;17.950;2023-10-19T01:49:09;102137.65;;;-2.64;81.66
72909;BME280;61051;62.624;17.950;2023-10-19T01:51:37;102139.11;;;-2.71;81.50
72909;BME280;61051;62.624;17.950;2023-10-19T01:54:06;102138.98;;;-2.79;81.52
72909;BME280;61051;62.624;17.950;2023-10-19T01:56:36;102139.47;;;-2.82;82.65
72909;BME280;61051;62.624;17.950;2023-10-19T01:59:05;102142.72;;;-2.99;81.84
72909;BME280;61051;62.624;17.950;2023-10-19T02:01:33;102140.57;;;-2.86;82.35
72909;BME280;61051;62.624;17.950;2023-10-19T02:04:04;102140.61;;;-2.87;82.16
72909;BME280;61051;62.624;17.950;2023-10-19T02:06:34;102138.44;;;-2.92;82.34
72909;BME280;61051;62.624;17.950;2023-10-19T02:09:04;102133.90;;;-2.87;82.42
72909;BME280;61051;62.624;17.950;2023-10-19T02:11:33;102129.74;;;-2.74;82.28
72909;BME280;61051;62.624;17.950;2023-10-19T02:14:02;102137.39;;;-2.65;81.53
72909;BME280;61051;62.624;17.950;2023-10-19T02:16:30;102136.34;;;-2.64;81.31
72909;BME280;61051;62.624;17.950;2023-10-19T02:18:59;102135.74;;;-2.63;81.44
72909;BME280;61051;62.624;17.950;2023-10-19T02:21:28;102139.02;;;-2.67;81.14
72909;BME280;61051;62.624;17.950;2023-10-19T02:23:58;102140.46;;;-2.68;81.07
72909;BME280;61051;62.624;17.950;2023-10-19T02:26:27;102139.42;;;-2.59;80.82
72909;BME280;61051;62.624;17.950;2023-10-19T02:28:56;102136.31;;;-2.61;81.77
72909;BME280;61051;62.624;17.950;2023-10-19T02:31:25;102135.46;;;-2.64;81.72
72909;BME280;61051;62.624;17.950;2023-10-19T02:33:55;102133.61;;;-2.68;82.35
72909;BME280;61051;62.624;17.950;2023-10-19T02:36:25;102135.84;;;-2.61;81.72
72909;BME280;61051;62.624;17.950;2023-10-19T02:38:54;102135.22;;;-2.54;81.29
72909;BME280;61051;62.624;17.950;2023-10-19T02:41:22;102133.05;;;-2.53;80.85
72909;BME280;61051;62.624;17.950;2023-10-19T02:43:51;102131.64;;;-2.49;81.33
72909;BME280;61051;62.624;17.950;2023-10-19T02:46:19;102133.86;;;-2.54;80.91
72909;BME280;61051;62.624;17.950;2023-10-19T02:48:48;102135.66;;;-2.49;81.65
72909;BME280;61051;62.624;17.950;2023-10-19T02:51:17;102136.13;;;-2.42;81.80
72909;BME280;61051;62.624;17.950;2023-10-19T02:53:45;102131.86;;;-2.43;81.46
72909;BME280;61051;62.624;17.950;2023-10-19T02:56:15;102132.18;;;-2.46;81.03
72909;BME280;61051;62.624;17.950;2023-10-19T02:58:46;102139.05;;;-2.49;81.75
72909;BME280;61051;62.624;17.950;2023-10-19T03:01:16;102134.72;;;-2.44;81.78
72909;BME280;61051;62.624;17.950;2023-10-19T03:03:45;102135.85;;;-2.59;81.96
72909;BME280;61051;62.624;17.950;2023-10-19T03:06:14;102138.10;;;-2.47;81.92
72909;BME280;61051;62.624;17.950;2023-10-19T03:08:43;102140.68;;;-2.35;82.45
72909;BME280;61051;62.624;17.950;2023-10-19T03:11:12;102140.26;;;-2.55;82.64
72909;BME280;61051;62.624;17.950;2023-10-19T03:13:40;102141.72;;;-2.55;83.39
72909;BME280;61051;62.624;17.950;2023-10-19T03:16:09;102139.92;;;-2.58;83.41
72909;BME280;61051;62.624;17.950;2023-10-19T03:18:38;102140.72;;;-2.46;82.81
72909;BME280;61051;62.624;17.950;2023-10-19T03:21:06;102142.69;;;-2.47;83.12
72909;BME280;61051;62.624;17.950;2023-10-19T03:23:35;102142.97;;;-2.40;82.75
72909;BME280;61051;62.624;17.950;2023-10-19T03:26:04;102137.69;;;-2.44;82.57
72909;BME280;61051;62.624;17.950;2023-10-19T03:28:32;102139.78;;;-2.42;82.57
72909;BME280;61051;62.624;17.950;2023-10-19T03:31:01;102141.08;;;-2.46;83.27
72909;BME280;61051;62.624;17.950;2023-10-19T03:33:30;102144.98;;;-2.56;83.48
72909;BME280;61051;62.624;17.950;2023-10-19T03:35:58;102147.46;;;-2.59;83.23
72909;BME280;61051;62.624;17.950;2023-10-19T03:38:27;102149.00;;;-2.53;82.97
72909;BME280;61051;62.624;17.950;2023-10-19T03:40:56;102147.96;;;-2.42;83.45
72909;BME280;61051;62.624;17.950;2023-10-19T03:43:26;102143.57;;;-2.39;82.97
72909;BME280;61051;62.624;17.950;2023-10-19T03:45:55;102149.05;;;-2.45;83.42
72909;BME280;61051;62.624;17.950;2023-10-19T03:48:23;102151.16;;;-2.33;83.26
72909;BME280;61051;62.624;17.950;2023-10-19T03:50:52;102154.53;;;-2.55;83.79
72909;BME280;61051;62.624;17.950;2023-10-19T03:53:20;102159.73;;;-2.47;83.78
72909;BME280;61051;62.624;17.950;2023-10-19T03:55:49;102160.07;;;-2.50;83.82
72909;BME280;61051;62.624;17.950;2023-10-19T03:58:17;102160.67;;;-2.45;83.01
72909;BME280;61051;62.624;17.950;2023-10-19T04:03:30;102155.58;;;-2.30;82.72
72909;BME280;61051;62.624;17.950;2023-10-19T04:05:58;102159.52;;;-2.34;82.43
72909;BME280;61051;62.624;17.950;2023-10-19T04:08:27;102157.09;;;-2.25;82.05
72909;BME280;61051;62.624;17.950;2023-10-19T04:10:55;102156.99;;;-2.28;81.89
72909;BME280;61051;62.624;17.950;2023-10-19T04:13:24;102155.89;;;-2.20;82.07
72909;BME280;61051;62.624;17.950;2023-10-19T04:15:52;102157.30;;;-2.23;81.83
72909;BME280;61051;62.624;17.950;2023-10-19T04:18:22;102150.93;;;-2.22;81.78
72909;BME280;61051;62.624;17.950;2023-10-19T04:20:50;102153.81;;;-2.21;82.21
72909;BME280;61051;62.624;17.950;2023-10-19T04:23:19;102152.75;;;-2.17;81.96
72909;BME280;61051;62.624;17.950;2023-10-19T04:25:48;102155.56;;;-2.14;81.98
72909;BME280;61051;62.624;17.950;2023-10-19T04:28:16;102157.91;;;-2.17;81.45
72909;BME280;61051;62.624;17.950;2023-10-19T04:30:45;102163.77;;;-2.05;81.31
72909;BME280;61051;62.624;17.950;2023-10-19T04:33:13;102164.01;;;-1.95;81.72
72909;BME280;61051;62.624;17.950;2023-10-19T04:35:42;102167.67;;;-1.99;80.76
72909;BME280;61051;62.624;17.950;2023-10-19T04:38:11;102168.12;;;-1.92;80.80
72909;BME280;61051;62.624;17.950;2023-10-19T04:40:40;102172.69;;;-1.82;79.98
72909;BME280;61051;62.624;17.950;2023-10-19T04:43:09;102170.20;;;-1.85;80.94
72909;BME280;61051;62.624;17.950;2023-10-19T04:45:39;102170.19;;;-1.86;80.92
72909;BME280;61051;62.624;17.950;2023-10-19T04:48:08;102172.24;;;-1.85;80.97
72909;BME280;61051;62.624;17.950;2023-10-19T04:50:36;102175.13;;;-1.83;81.16
72909;BME280;61051;62.624;17.950;2023-10-19T04:53:05;102176.72;;;-1.91;81.09
72909;BME280;61051;62.624;17.950;2023-10-19T04:55:33;102177.33;;;-1.88;81.58
72909;BME280;61051;62.624;17.950;2023-10-19T04:58:02;102181.16;;;-1.90;81.37
72909;BME280;61051;62.624;17.950;2023-10-19T05:00:30;102185.40;;;-1.91;81.32
72909;BME280;61051;62.624;17.950;2023-10-19T05:02:59;102188.51;;;-1.80;81.21
72909;BME280;61051;62.624;17.950;2023-10-19T05:05:28;102191.20;;;-1.86;81.48
72909;BME280;61051;62.624;17.950;2023-10-19T05:07:57;102188.16;;;-1.89;80.98
72909;BME280;61051;62.624;17.950;2023-10-19T05:10:25;102190.11;;;-1.84;80.52
72909;BME280;61051;62.624;17.950;2023-10-19T05:12:54;102188.59;;;-1.80;80.87
72909;BME280;61051;62.624;17.950;2023-10-19T05:15:23;102188.28;;;-1.85;80.61
72909;BME280;61051;62.624;17.950;2023-10-19T05:17:51;102191.66;;;-1.77;79.34
72909;BME280;61051;62.624;17.950;2023-10-19T05:20:20;102194.26;;;-1.75;79.50
72909;BME280;61051;62.624;17.950;2023-10-19T05:22:48;102191.54;;;-1.75;79.74
72909;BME280;61051;62.624;17.950;2023-10-19T05:25:17;102189.55;;;-1.76;79.02
72909;BME280;61051;62.624;17.950;2023-10-19T05:27:45;102192.60;;;-1.83;79.67
72909;BME280;61051;62.624;17.950;2023-10-19T05:30:14;102196.86;;;-1.85;79.79
72909;BME280;61051;62.624;17.950;2023-10-19T05:32:43;102195.45;;;-1.87;79.62
72909;BME280;61051;62.624;17.950;2023-10-19T05:35:11;102193.73;;;-1.78;79.42
72909;BME280;61051;62.624;17.950;2023-10-19T05:37:40;102193.90;;;-1.74;79.85
72909;BME280;61051;62.624;17.950;2023-10-19T05:40:10;102196.55;;;-1.75;80.09
72909;BME280;61051;62.624;17.950;2023-10-19T05:42:39;102199.76;;;-1.60;80.57
72909;BME280;61051;62.624;17.950;2023-10-19T05:45:08;102200.73;;;-1.61;80.27
72909;BME280;61051;62.624;17.950;2023-10-19T05:47:36;102198.27;;;-1.59;80.00
72909;BME280;61051;62.624;17.950;2023-10-19T05:50:06;102200.94;;;-1.54;79.84
72909;BME280;61051;62.624;17.950;2023-10-19T05:52:35;102199.05;;;-1.57;80.34
72909;BME280;61051;62.624;17.950;2023-10-19T05:55:05;102203.89;;;-1.60;79.78
72909;BME280;61051;62.624;17.950;2023-10-19T05:57:36;102204.27;;;-1.59;80.15
72909;BME280;61051;62.624;17.950;2023-10-19T06:00:07;102204.17;;;-1.61;80.46
72909;BME280;61051;62.624;17.950;2023-10-19T06:02:35;102206.05;;;-1.54;80.07
72909;BME280;61051;62.624;17.950;2023-10-19T06:05:04;102207.07;;;-1.54;79.94
72909;BME280;61051;62.624;17.950;2023-10-19T06:07:34;102207.70;;;-1.55;80.50
72909;BME280;61051;62.624;17.950;2023-10-19T06:10:03;102208.63;;;-1.52;79.62
72909;BME280;61051;62.624;17.950;2023-10-19T06:12:31;102215.31;;;-1.43;79.43
72909;BME280;61051;62.624;17.950;2023-10-19T06:15:00;102210.63;;;-1.40;79.86
72909;BME280;61051;62.624;17.950;2023-10-19T06:17:28;102219.77;;;-1.36;79.43
72909;BME280;61051;62.624;17.950;2023-10-19T06:19:57;102215.12;;;-1.27;80.39
72909;BME280;61051;62.624;17.950;2023-10-19T06:22:25;102217.39;;;-1.33;80.14
72909;BME280;61051;62.624;17.950;2023-10-19T06:24:55;102214.67;;;-1.34;80.19
72909;BME280;61051;62.624;17.950;2023-10-19T06:27:23;102214.57;;;-1.44;80.25
72909;BME280;61051;62.624;17.950;2023-10-19T06:29:52;102223.35;;;-1.25;80.50
72909;BME280;61051;62.624;17.950;2023-10-19T06:32:20;102221.92;;;-1.30;79.07
72909;BME280;61051;62.624;17.950;2023-10-19T06:34:49;102219.87;;;-1.21;79.13
72909;BME280;61051;62.624;17.950;2023-10-19T06:37:17;102225.34;;;-1.25;78.63
72909;BME280;61051;62.624;17.950;2023-10-19T06:39:46;102222.56;;;-1.19;79.32
72909;BME280;61051;62.624;17.950;2023-10-19T06:42:14;102226.71;;;-1.12;78.54
72909;BME280;61051;62.624;17.950;2023-10-19T06:44:43;102229.71;;;-1.16;78.61
72909;BME280;61051;62.624;17.950;2023-10-19T06:47:12;102231.93;;;-1.17;78.28
72909;BME280;61051;62.624;17.950;2023-10-19T06:49:40;102231.83;;;-1.11;78.03
72909;BME280;61051;62.624;17.950;2023-10-19T06:52:09;102234.38;;;-1.04;77.84
72909;BME280;61051;62.624;17.950;2023-10-19T06:54:38;102233.55;;;-1.07;77.82
72909;BME280;61051;62.624;17.950;2023-10-19T06:57:08;102233.01;;;-1.03;77.67
72909;BME280;61051;62.624;17.950;2023-10-19T06:59:37;102234.99;;;-1.06;77.55
72909;BME280;61051;62.624;17.950;2023-10-19T07:02:06;102233.17;;;-0.87;77.10
72909;BME280;61051;62.624;17.950;2023-10-19T07:04:36;102230.45;;;-0.79;77.50
72909;BME280;61051;62.624;17.950;2023-10-19T07:07:05;102232.91;;;-0.96;77.41
72909;BME280;61051;62.624;17.950;2023-10-19T07:09:35;102235.29;;;-1.04;77.51
72909;BME280;61051;62.624;17.950;2023-10-19T07:12:04;102237.74;;;-0.95;77.42
72909;BME280;61051;62.624;17.950;2023-10-19T07:14:32;102243.22;;;-0.90;77.10
72909;BME280;61051;62.624;17.950;2023-10-19T07:17:01;102237.29;;;-0.78;77.77
72909;BME280;61051;62.624;17.950;2023-10-19T07:19:29;102242.47;;;-0.83;77.02
72909;BME280;61051;62.624;17.950;2023-10-19T07:21:58;102241.59;;;-0.90;77.48
72909;BME280;61051;62.624;17.950;2023-10-19T07:24:26;102248.65;;;-0.92;77.82
72909;BME280;61051;62.624;17.950;2023-10-19T07:26:55;102247.41;;;-0.81;77.08
72909;BME280;61051;62.624;17.950;2023-10-19T07:29:24;102247.96;;;-0.75;77.08
72909;BME280;61051;62.624;17.950;2023-10-19T07:31:52;102246.50;;;-0.83;77.17
72909;BME280;61051;62.624;17.950;2023-10-19T07:34:21;102252.30;;;-0.95;77.32
72909;BME280;61051;62.624;17.950;2023-10-19T07:36:49;102256.46;;;-0.92;77.65
72909;BME280;61051;62.624;17.950;2023-10-19T07:39:18;102255.05;;;-0.83;76.96
72909;BME280;61051;62.624;17.950;2023-10-19T07:41:49;102261.75;;;-0.82;77.22
72909;BME280;61051;62.624;17.950;2023-10-19T07:44:18;102255.15;;;-0.85;76.74
72909;BME280;61051;62.624;17.950;2023-10-19T07:46:48;102255.00;;;-0.76;77.24
72909;BME280;61051;62.624;17.950;2023-10-19T07:49:16;102255.69;;;-0.70;77.73
72909;BME280;61051;62.624;17.950;2023-10-19T07:51:46;102255.30;;;-0.61;76.98
72909;BME280;61051;62.624;17.950;2023-10-19T07:54:14;102256.03;;;-0.68;76.56
72909;BME280;61051;62.624;17.950;2023-10-19T07:56:42;102255.70;;;-0.59;76.16
72909;BME280;61051;62.624;17.950;2023-10-19T07:59:10;102251.48;;;-0.49;76.69
72909;BME280;61051;62.624;17.950;2023-10-19T08:01:39;102254.72;;;-0.31;76.18
72909;BME280;61051;62.624;17.950;2023-10-19T08:04:09;102257.06;;;-0.33;75.64
72909;BME280;61051;62.624;17.950;2023-10-19T08:06:38;102252.07;;;-0.35;75.31
72909;BME280;61051;62.624;17.950;2023-10-19T08:09:07;102255.09;;;-0.22;75.61
72909;BME280;61051;62.624;17.950;2023-10-19T08:11:37;102250.86;;;-0.15;76.10
72909;BME280;61051;62.624;17.950;2023-10-19T08:14:06;102262.87;;;-0.26;75.93
72909;BME280;61051;62.624;17.950;2023-10-19T08:16:36;102263.01;;;-0.36;74.92
72909;BME280;61051;62.624;17.950;2023-10-19T08:19:04;102255.43;;;-0.19;76.34
72909;BME280;61051;62.624;17.950;2023-10-19T08:21:33;102255.22;;;-0.20;75.47
72909;BME280;61051;62.624;17.950;2023-10-19T08:24:01;102253.05;;;-0.09;75.54
72909;BME280;61051;62.624;17.950;2023-10-19T08:26:30;102251.40;;;-0.12;75.55
72909;BME280;61051;62.624;17.950;2023-10-19T08:28:58;102251.29;;;0.08;75.73
72909;BME280;61051;62.624;17.950;2023-10-19T08:31:27;102261.43;;;0.20;74.61
72909;BME280;61051;62.624;17.950;2023-10-19T08:33:55;102263.48;;;0.06;74.80
72909;BME280;61051;62.624;17.950;2023-10-19T08:36:24;102265.88;;;0.23;74.90
72909;BME280;61051;62.624;17.950;2023-10-19T08:38:52;102265.53;;;0.24;74.76
72909;BME280;61051;62.624;17.950;2023-10-19T08:41:21;102269.08;;;0.38;75.01
72909;BME280;61051;62.624;17.950;2023-10-19T08:43:50;102268.95;;;0.35;75.11
72909;BME280;61051;62.624;17.950;2023-10-19T08:46:19;102271.64;;;0.26;74.92
72909;BME280;61051;62.624;17.950;2023-10-19T08:48:47;102270.05;;;0.37;75.63
72909;BME280;61051;62.624;17.950;2023-10-19T08:51:16;102273.09;;;0.22;75.26
72909;BME280;61051;62.624;17.950;2023-10-19T08:53:46;102277.20;;;0.29;75.58
72909;BME280;61051;62.624;17.950;2023-10-19T08:56:20;102278.91;;;0.30;74.93
72909;BME280;61051;62.624;17.950;2023-10-19T08:58:49;102271.64;;;0.40;75.14
72909;BME280;61051;62.624;17.950;2023-10-19T09:01:18;102278.05;;;0.60;74.35
72909;BME280;61051;62.624;17.950;2023-10-19T09:03:47;102275.63;;;0.82;72.80
72909;BME280;61051;62.624;17.950;2023-10-19T09:06:16;102272.36;;;1.06;73.17
72909;BME280;61051;62.624;17.950;2023-10-19T09:08:47;102273.12;;;1.16;72.45
72909;BME280;61051;62.624;17.950;2023-10-19T09:11:16;102275.77;;;1.52;71.92
72909;BME280;61051;62.624;17.950;2023-10-19T09:13:46;102275.78;;;2.44;68.59
72909;BME280;61051;62.624;17.950;2023-10-19T09:16:15;102280.80;;;3.12;66.65
72909;BME280;61051;62.624;17.950;2023-10-19T09:18:44;102279.89;;;3.51;63.33
72909;BME280;61051;62.624;17.950;2023-10-19T09:21:15;102282.19;;;3.77;63.18
72909;BME280;61051;62.624;17.950;2023-10-19T09:23:45;102270.32;;;4.74;60.52
72909;BME280;61051;62.624;17.950;2023-10-19T09:26:13;102270.24;;;4.46;57.43
72909;BME280;61051;62.624;17.950;2023-10-19T09:28:41;102277.83;;;3.46;61.44
72909;BME280;61051;62.624;17.950;2023-10-19T09:31:09;102277.51;;;3.03;63.24
72909;BME280;61051;62.624;17.950;2023-10-19T09:33:40;102278.06;;;2.89;65.50
72909;BME280;61051;62.624;17.950;2023-10-19T09:36:10;102281.74;;;2.84;65.86
72909;BME280;61051;62.624;17.950;2023-10-19T09:38:38;102283.88;;;2.48;66.46
72909;BME280;61051;62.624;17.950;2023-10-19T09:41:09;102281.46;;;2.23;67.79
72909;BME280;61051;62.624;17.950;2023-10-19T09:43:43;102282.39;;;2.22;68.28
72909;BME280;61051;62.624;17.950;2023-10-19T09:46:21;102286.76;;;2.05;68.47
72909;BME280;61051;62.624;17.950;2023-10-19T09:48:50;102292.18;;;1.99;68.91
72909;BME280;61051;62.624;17.950;2023-10-19T09:51:19;102300.86;;;1.83;69.38
72909;BME280;61051;62.624;17.950;2023-10-19T09:53:59;102303.10;;;1.69;70.83
72909;BME280;61051;62.624;17.950;2023-10-19T09:56:35;102301.39;;;1.50;71.57
72909;BME280;61051;62.624;17.950;2023-10-19T09:59:06;102302.38;;;1.35;71.85
72909;BME280;61051;62.624;17.950;2023-10-19T10:03:45;102304.42;;;1.14;74.62
72909;BME280;61051;62.624;17.950;2023-10-19T10:06:16;102304.40;;;1.17;77.40
72909;BME280;61051;62.624;17.950;2023-10-19T10:08:47;102302.20;;;0.87;79.51
72909;BME280;61051;62.624;17.950;2023-10-19T10:11:18;102306.17;;;0.91;81.91
72909;BME280;61051;62.624;17.950;2023-10-19T10:13:47;102305.79;;;0.64;84.22
72909;BME280;61051;62.624;17.950;2023-10-19T10:16:15;102300.73;;;0.57;85.57
72909;BME280;61051;62.624;17.950;2023-10-19T10:18:46;102305.83;;;0.55;86.71
72909;BME280;61051;62.624;17.950;2023-10-19T10:21:16;102310.80;;;0.49;87.58
72909;BME280;61051;62.624;17.950;2023-10-19T10:23:48;102312.73;;;0.43;87.81
72909;BME280;61051;62.624;17.950;2023-10-19T10:26:18;102326.37;;;0.15;88.56
72909;BME280;61051;62.624;17.950;2023-10-19T10:28:48;102322.86;;;0.15;90.51
72909;BME280;61051;62.624;17.950;2023-10-19T10:31:21;102322.67;;;0.02;91.85
72909;BME280;61051;62.624;17.950;2023-10-19T10:33:52;102319.10;;;0.07;93.99
72909;BME280;61051;62.624;17.950;2023-10-19T10:36:21;102321.54;;;0.16;92.60
72909;BME280;61051;62.624;17.950;2023-10-19T10:38:51;102316.21;;;-0.05;93.45
72909;BME280;61051;62.624;17.950;2023-10-19T10:41:21;102318.85;;;-0.03;93.54
72909;BME280;61051;62.624;17.950;2023-10-19T10:43:54;102320.63;;;-0.17;94.47
72909;BME280;61051;62.624;17.950;2023-10-19T10:46:24;102315.21;;;-0.05;94.99
72909;BME280;61051;62.624;17.950;2023-10-19T10:48:53;102309.91;;;-0.07;94.27
72909;BME280;61051;62.624;17.950;2023-10-19T10:51:22;102308.75;;;-0.08;93.76
72909;BME280;61051;62.624;17.950;2023-10-19T10:53:53;102300.86;;;-0.03;93.48
72909;BME280;61051;62.624;17.950;2023-10-19T10:56:23;102293.22;;;0.07;91.92
72909;BME280;61051;62.624;17.950;2023-10-19T10:58:52;102289.50;;;0.10;92.65
72909;BME280;61051;62.624;17.950;2023-10-19T11:01:29;102284.43;;;0.13;92.34
72909;BME280;61051;62.624;17.950;2023-10-19T11:04:06;102283.87;;;0.21;93.01
72909;BME280;61051;62.624;17.950;2023-10-19T11:06:53;102287.58;;;0.24;92.61
72909;BME280;61051;62.624;17.950;2023-10-19T11:09:22;102287.14;;;0.42;91.28
72909;BME280;61051;62.624;17.950;2023-10-19T11:11:50;102292.07;;;0.48;88.12
72909;BME280;61051;62.624;17.950;2023-10-19T11:14:19;102300.06;;;0.42;87.18
72909;BME280;61051;62.624;17.950;2023-10-19T11:16:47;102307.91;;;0.53;86.05
72909;BME280;61051;62.624;17.950;2023-10-19T11:19:16;102312.99;;;0.47;85.58
72909;BME280;61051;62.624;17.950;2023-10-19T11:22:00;102309.10;;;0.24;87.70
72909;BME280;61051;62.624;17.950;2023-10-19T11:24:28;102302.98;;;0.40;91.02
72909;BME280;61051;62.624;17.950;2023-10-19T11:26:57;102296.66;;;0.36;91.70
72909;BME280;61051;62.624;17.950;2023-10-19T11:29:25;102311.03;;;0.36;92.50
72909;BME280;61051;62.624;17.950;2023-10-19T11:31:57;102300.92;;;0.39;92.97
72909;BME280;61051;62.624;17.950;2023-10-19T11:34:26;102300.90;;;0.39;92.69
72909;BME280;61051;62.624;17.950;2023-10-19T11:36:56;102290.36;;;0.57;91.91
72909;BME280;61051;62.624;17.950;2023-10-19T11:39:25;102300.68;;;0.75;91.74
72909;BME280;61051;62.624;17.950;2023-10-19T11:41:53;102309.72;;;0.92;90.37
72909;BME280;61051;62.624;17.950;2023-10-19T11:44:22;102321.54;;;0.86;91.11
72909;BME280;61051;62.624;17.950;2023-10-19T11:46:50;102329.90;;;0.58;92.23
72909;BME280;61051;62.624;17.950;2023-10-19T11:49:19;102328.00;;;0.39;94.19
72909;BME280;61051;62.624;17.950;2023-10-19T11:51:47;102328.48;;;0.23;94.65
72909;BME280;61051;62.624;17.950;2023-10-19T11:54:16;102327.13;;;0.28;95.53
72909;BME280;61051;62.624;17.950;2023-10-19T11:56:45;102326.05;;;0.17;96.42
72909;BME280;61051;62.624;17.950;2023-10-19T11:59:13;102327.92;;;0.21;96.51
72909;BME280;61051;62.624;17.950;2023-10-19T12:01:42;102321.59;;;0.23;96.65
72909;BME280;61051;62.624;17.950;2023-10-19T12:04:10;102324.68;;;0.20;97.04
72909;BME280;61051;62.624;17.950;2023-10-19T12:06:39;102345.29;;;0.14;96.82
72909;BME280;61051;62.624;17.950;2023-10-19T12:09:07;102353.76;;;0.10;97.20
72909;BME280;61051;62.624;17.950;2023-10-19T12:11:36;102341.12;;;0.18;97.80
72909;BME280;61051;62.624;17.950;2023-10-19T12:14:05;102320.24;;;0.25;97.66
72909;BME280;61051;62.624;17.950;2023-10-19T12:16:35;102317.96;;;0.14;97.41
72909;BME280;61051;62.624;17.950;2023-10-19T12:19:04;102323.24;;;0.10;97.00
72909;BME280;61051;62.624;17.950;2023-10-19T12:21:34;102321.15;;;0.05;97.48
72909;BME280;61051;62.624;17.950;2023-10-19T12:24:02;102318.62;;;0.03;97.93
72909;BME280;61051;62.624;17.950;2023-10-19T12:26:31;102313.09;;;-0.09;98.44
72909;BME280;61051;62.624;17.950;2023-10-19T12:28:59;102306.16;;;-0.02;98.70
72909;BME280;61051;62.624;17.950;2023-10-19T12:31:28;102312.30;;;0.03;98.90
72909;BME280;61051;62.624;17.950;2023-10-19T12:33:56;102304.92;;;0.11;98.89
72909;BME280;61051;62.624;17.950;2023-10-19T12:36:25;102302.48;;;0.01;98.87
72909;BME280;61051;62.624;17.950;2023-10-19T12:39:05;102308.02;;;0.10;99.49
72909;BME280;61051;62.624;17.950;2023-10-19T12:41:40;102303.19;;;0.10;98.43
72909;BME280;61051;62.624;17.950;2023-10-19T12:44:08;102305.06;;;0.22;97.31
72909;BME280;61051;62.624;17.950;2023-10-19T12:46:36;102288.44;;;0.35;96.76
72909;BME280;61051;62.624;17.950;2023-10-19T12:49:06;102282.44;;;0.54;95.05
72909;BME280;61051;62.624;17.950;2023-10-19T12:51:35;102283.59;;;0.59;93.21
72909;BME280;61051;62.624;17.950;2023-10-19T12:54:05;102285.10;;;0.66;92.25
72909;BME280;61051;62.624;17.950;2023-10-19T12:56:34;102287.22;;;0.80;92.42
72909;BME280;61051;62.624;17.950;2023-10-19T12:59:03;102294.39;;;0.85;91.63